createdAt,value
2022-10-08T00:00:09.810Z,997.08
2022-10-08T00:01:09.794Z,997.08
2022-10-08T00:02:09.823Z,997.10
2022-10-08T00:03:09.743Z,997.12
2022-10-08T00:04:09.779Z,997.13
2022-10-08T00:05:09.738Z,997.11
2022-10-08T00:06:09.686Z,997.10
2022-10-08T00:07:09.660Z,997.14
2022-10-08T00:08:09.639Z,997.10
2022-10-08T00:09:09.620Z,997.07
2022-10-08T00:10:09.602Z,997.11
2022-10-08T00:11:09.576Z,997.11
2022-10-08T00:12:09.558Z,997.07
2022-10-08T00:13:09.539Z,997.05
2022-10-08T00:14:09.528Z,997.11
2022-10-08T00:15:09.498Z,997.09
2022-10-08T00:16:09.488Z,997.10
2022-10-08T00:17:09.449Z,997.10
2022-10-08T00:18:09.427Z,997.09
2022-10-08T00:19:09.405Z,997.08
2022-10-08T00:20:09.390Z,997.08
2022-10-08T00:21:09.367Z,997.12
2022-10-08T00:22:09.358Z,997.09
2022-10-08T00:23:09.325Z,997.10
2022-10-08T00:24:09.306Z,997.11
2022-10-08T00:25:09.281Z,997.11
2022-10-08T00:26:09.341Z,997.08
2022-10-08T00:27:09.238Z,997.06
2022-10-08T00:28:09.231Z,997.06
2022-10-08T00:29:09.198Z,997.06
2022-10-08T00:30:09.172Z,997.02
2022-10-08T00:31:09.222Z,997.01
2022-10-08T00:32:09.142Z,997.04
2022-10-08T00:33:09.141Z,997.03
2022-10-08T00:34:09.087Z,997.07
2022-10-08T00:35:09.100Z,997.05
2022-10-08T00:36:09.072Z,997.08
2022-10-08T00:37:09.032Z,997.05
2022-10-08T00:38:09.037Z,997.04
2022-10-08T00:39:09.024Z,997.01
2022-10-08T00:40:08.985Z,996.97
2022-10-08T00:41:09.031Z,996.99
2022-10-08T00:42:09.026Z,996.97
2022-10-08T00:43:08.898Z,997.03
2022-10-08T00:44:08.880Z,997.06
2022-10-08T00:45:08.857Z,997.02
2022-10-08T00:46:08.942Z,997.07
2022-10-08T00:47:08.827Z,997.00
2022-10-08T00:48:08.794Z,997.01
2022-10-08T00:49:08.778Z,997.02
2022-10-08T00:50:08.759Z,997.00
2022-10-08T00:51:08.733Z,997.02
2022-10-08T00:52:08.739Z,996.99
2022-10-08T00:53:08.698Z,996.99
2022-10-08T00:54:08.671Z,997.01
2022-10-08T00:55:08.652Z,996.99
2022-10-08T00:56:08.630Z,996.98
2022-10-08T00:57:08.703Z,996.95
2022-10-08T00:58:08.586Z,996.95
2022-10-08T00:59:08.565Z,996.92
2022-10-08T01:00:08.541Z,996.94
2022-10-08T01:01:08.622Z,996.89
2022-10-08T01:02:08.696Z,996.92
2022-10-08T01:03:08.484Z,996.95
2022-10-08T01:04:08.455Z,996.94
2022-10-08T01:05:08.438Z,996.97
2022-10-08T01:06:08.425Z,996.96
2022-10-08T01:07:08.397Z,996.96
2022-10-08T01:08:08.378Z,996.97
2022-10-08T01:09:08.354Z,996.98
2022-10-08T01:10:08.337Z,996.98
2022-10-08T01:11:08.311Z,996.96
2022-10-08T01:12:08.414Z,997.01
2022-10-08T01:13:08.266Z,996.96
2022-10-08T01:14:08.248Z,996.99
2022-10-08T01:15:08.234Z,996.97
2022-10-08T01:16:08.277Z,996.98
2022-10-08T01:17:08.187Z,996.96
2022-10-08T01:18:08.163Z,996.97
2022-10-08T01:19:08.154Z,996.97
2022-10-08T01:20:08.124Z,996.99
2022-10-08T01:21:08.110Z,996.97
2022-10-08T01:22:08.083Z,996.98
2022-10-08T01:23:08.058Z,996.95
2022-10-08T01:24:08.039Z,996.92
2022-10-08T01:25:08.023Z,996.90
2022-10-08T01:26:08.009Z,996.87
2022-10-08T01:27:07.978Z,996.86
2022-10-08T01:28:08.009Z,996.88
2022-10-08T01:29:07.936Z,996.89
2022-10-08T01:30:07.915Z,996.93
2022-10-08T01:31:07.938Z,996.95
2022-10-08T01:32:07.878Z,996.90
2022-10-08T01:33:07.851Z,996.91
2022-10-08T01:34:07.832Z,996.88
2022-10-08T01:35:07.820Z,996.87
2022-10-08T01:36:07.809Z,996.88
2022-10-08T01:37:07.770Z,996.84
2022-10-08T01:38:07.742Z,996.86
2022-10-08T01:39:07.728Z,996.87
2022-10-08T01:40:07.705Z,996.86
2022-10-08T01:41:07.690Z,996.87
2022-10-08T01:42:07.662Z,996.84
2022-10-08T01:43:07.641Z,996.88
2022-10-08T01:44:07.623Z,996.87
2022-10-08T01:45:07.602Z,996.88
2022-10-08T01:46:07.657Z,996.89
2022-10-08T01:47:07.561Z,996.86
2022-10-08T01:48:07.546Z,996.89
2022-10-08T01:49:07.527Z,996.89
2022-10-08T01:50:07.494Z,996.91
2022-10-08T01:51:07.488Z,996.92
2022-10-08T01:52:07.459Z,996.92
2022-10-08T01:53:07.437Z,996.93
2022-10-08T01:54:07.408Z,996.94
2022-10-08T01:55:07.395Z,996.94
2022-10-08T01:56:07.371Z,996.95
2022-10-08T01:57:07.349Z,996.96
2022-10-08T01:58:07.336Z,996.94
2022-10-08T01:59:07.316Z,996.94
2022-10-08T02:00:07.303Z,996.95
2022-10-08T02:01:07.303Z,996.92
2022-10-08T02:02:07.313Z,996.87
2022-10-08T02:03:07.247Z,996.85
2022-10-08T02:04:07.206Z,996.85
2022-10-08T02:05:07.194Z,996.84
2022-10-08T02:06:07.166Z,996.82
2022-10-08T02:07:07.141Z,996.89
2022-10-08T02:08:07.130Z,996.86
2022-10-08T02:09:07.103Z,996.83
2022-10-08T02:10:07.085Z,996.85
2022-10-08T02:11:07.061Z,996.84
2022-10-08T02:12:07.046Z,996.85
2022-10-08T02:13:07.039Z,996.85
2022-10-08T02:14:07.027Z,996.89
2022-10-08T02:15:06.975Z,996.87
2022-10-08T02:16:07.031Z,996.92
2022-10-08T02:17:06.943Z,996.91
2022-10-08T02:18:06.911Z,996.95
2022-10-08T02:19:06.895Z,996.89
2022-10-08T02:20:06.871Z,996.93
2022-10-08T02:21:06.849Z,996.90
2022-10-08T02:22:06.835Z,996.94
2022-10-08T02:23:06.816Z,996.90
2022-10-08T02:24:06.790Z,996.96
2022-10-08T02:25:06.771Z,996.91
2022-10-08T02:26:06.749Z,996.93
2022-10-08T02:27:06.740Z,996.90
2022-10-08T02:28:06.767Z,996.93
2022-10-08T02:29:06.684Z,996.96
2022-10-08T02:30:06.664Z,996.95
2022-10-08T02:31:06.641Z,996.93
2022-10-08T02:32:06.691Z,996.99
2022-10-08T02:33:06.602Z,996.94
2022-10-08T02:34:06.582Z,996.96
2022-10-08T02:35:06.561Z,996.98
2022-10-08T02:36:06.538Z,997.00
2022-10-08T02:37:06.520Z,996.95
2022-10-08T02:38:06.499Z,996.95
2022-10-08T02:39:06.477Z,996.96
2022-10-08T02:40:06.456Z,996.99
2022-10-08T02:41:06.440Z,996.99
2022-10-08T02:42:06.410Z,997.04
2022-10-08T02:43:06.403Z,997.00
2022-10-08T02:44:06.386Z,997.01
2022-10-08T02:45:06.349Z,997.04
2022-10-08T02:46:06.416Z,997.02
2022-10-08T02:47:06.321Z,997.02
2022-10-08T02:48:06.287Z,996.99
2022-10-08T02:49:06.266Z,996.97
2022-10-08T02:50:06.242Z,996.96
2022-10-08T02:51:06.228Z,996.95
2022-10-08T02:52:06.204Z,996.88
2022-10-08T02:53:06.182Z,996.86
2022-10-08T02:54:06.161Z,996.89
2022-10-08T02:55:06.140Z,996.86
2022-10-08T02:56:06.121Z,996.87
2022-10-08T02:57:09.504Z,996.90
2022-10-08T02:58:06.079Z,996.92
2022-10-08T02:59:06.056Z,996.97
2022-10-08T03:00:06.038Z,996.95
2022-10-08T03:01:06.085Z,996.96
2022-10-08T03:02:06.120Z,996.98
2022-10-08T03:03:05.977Z,997.00
2022-10-08T03:04:05.959Z,996.99
2022-10-08T03:05:05.937Z,997.01
2022-10-08T03:06:05.910Z,997.07
2022-10-08T03:07:05.895Z,997.09
2022-10-08T03:08:05.869Z,997.08
2022-10-08T03:09:05.845Z,997.09
2022-10-08T03:10:05.854Z,997.11
2022-10-08T03:11:05.805Z,997.11
2022-10-08T03:12:05.792Z,997.08
2022-10-08T03:13:05.762Z,997.09
2022-10-08T03:14:05.745Z,997.06
2022-10-08T03:15:05.725Z,997.05
2022-10-08T03:16:05.703Z,997.08
2022-10-08T03:17:05.682Z,997.08
2022-10-08T03:18:05.660Z,997.08
2022-10-08T03:19:05.652Z,997.07
2022-10-08T03:20:05.617Z,997.09
2022-10-08T03:21:05.601Z,997.12
2022-10-08T03:22:05.579Z,997.16
2022-10-08T03:23:05.555Z,997.16
2022-10-08T03:24:05.533Z,997.19
2022-10-08T03:25:05.511Z,997.16
2022-10-08T03:26:05.491Z,997.17
2022-10-08T03:27:05.472Z,997.18
2022-10-08T03:28:05.502Z,997.19
2022-10-08T03:29:05.427Z,997.13
2022-10-08T03:30:05.402Z,997.17
2022-10-08T03:31:05.426Z,997.19
2022-10-08T03:32:05.367Z,997.19
2022-10-08T03:33:05.343Z,997.18
2022-10-08T03:34:05.322Z,997.14
2022-10-08T03:35:05.304Z,997.17
2022-10-08T03:36:05.281Z,997.13
2022-10-08T03:37:05.275Z,997.15
2022-10-08T03:38:05.241Z,997.15
2022-10-08T03:39:05.227Z,997.13
2022-10-08T03:40:05.194Z,997.17
2022-10-08T03:41:05.175Z,997.11
2022-10-08T03:42:05.155Z,997.11
2022-10-08T03:43:05.137Z,997.13
2022-10-08T03:44:05.111Z,997.15
2022-10-08T03:45:05.090Z,997.15
2022-10-08T03:46:05.139Z,997.13
2022-10-08T03:47:05.050Z,997.12
2022-10-08T03:48:05.051Z,997.13
2022-10-08T03:49:05.006Z,997.13
2022-10-08T03:50:04.986Z,997.15
2022-10-08T03:51:04.977Z,997.13
2022-10-08T03:52:04.943Z,997.16
2022-10-08T03:53:04.922Z,997.24
2022-10-08T03:54:04.903Z,997.17
2022-10-08T03:55:04.881Z,997.21
2022-10-08T03:56:04.860Z,997.19
2022-10-08T03:57:04.854Z,997.19
2022-10-08T03:58:04.813Z,997.22
2022-10-08T03:59:04.796Z,997.23
2022-10-08T04:00:04.775Z,997.28
2022-10-08T04:01:04.778Z,997.23
2022-10-08T04:02:04.735Z,997.20
2022-10-08T04:03:04.802Z,997.21
2022-10-08T04:04:04.686Z,997.21
2022-10-08T04:05:04.664Z,997.20
2022-10-08T04:06:04.645Z,997.23
2022-10-08T04:07:04.634Z,997.22
2022-10-08T04:08:04.604Z,997.24
2022-10-08T04:09:04.582Z,997.27
2022-10-08T04:10:04.557Z,997.29
2022-10-08T04:11:04.534Z,997.30
2022-10-08T04:12:04.518Z,997.33
2022-10-08T04:13:04.500Z,997.30
2022-10-08T04:14:04.476Z,997.28
2022-10-08T04:15:04.451Z,997.27
2022-10-08T04:16:04.487Z,997.28
2022-10-08T04:17:04.431Z,997.32
2022-10-08T04:18:04.383Z,997.30
2022-10-08T04:19:04.364Z,997.32
2022-10-08T04:20:04.360Z,997.36
2022-10-08T04:21:04.316Z,997.36
2022-10-08T04:22:04.300Z,997.36
2022-10-08T04:23:04.271Z,997.38
2022-10-08T04:24:04.260Z,997.40
2022-10-08T04:25:04.229Z,997.38
2022-10-08T04:26:04.205Z,997.37
2022-10-08T04:27:04.184Z,997.41
2022-10-08T04:28:04.236Z,997.41
2022-10-08T04:29:04.142Z,997.42
2022-10-08T04:30:04.129Z,997.40
2022-10-08T04:31:04.142Z,997.42
2022-10-08T04:32:04.083Z,997.43
2022-10-08T04:33:04.054Z,997.39
2022-10-08T04:34:04.052Z,997.44
2022-10-08T04:35:04.010Z,997.42
2022-10-08T04:36:03.983Z,997.44
2022-10-08T04:37:03.968Z,997.47
2022-10-08T04:38:03.941Z,997.51
2022-10-08T04:39:03.922Z,997.51
2022-10-08T04:40:03.906Z,997.48
2022-10-08T04:41:03.872Z,997.50
2022-10-08T04:42:03.972Z,997.46
2022-10-08T04:43:03.827Z,997.44
2022-10-08T04:44:03.807Z,997.41
2022-10-08T04:45:03.785Z,997.44
2022-10-08T04:46:03.827Z,997.42
2022-10-08T04:47:03.736Z,997.45
2022-10-08T04:48:03.720Z,997.46
2022-10-08T04:49:03.704Z,997.43
2022-10-08T04:50:03.673Z,997.43
2022-10-08T04:51:08.115Z,997.42
2022-10-08T04:52:03.626Z,997.44
2022-10-08T04:53:03.604Z,997.48
2022-10-08T04:54:03.577Z,997.47
2022-10-08T04:55:03.556Z,997.50
2022-10-08T04:56:03.542Z,997.48
2022-10-08T04:57:03.513Z,997.48
2022-10-08T04:58:03.506Z,997.49
2022-10-08T04:59:03.467Z,997.52
2022-10-08T05:00:18.111Z,997.54
2022-10-08T05:01:03.416Z,997.56
2022-10-08T05:02:03.465Z,997.50
2022-10-08T05:03:03.451Z,997.57
2022-10-08T05:04:03.381Z,997.54
2022-10-08T05:05:03.327Z,997.53
2022-10-08T05:06:03.306Z,997.57
2022-10-08T05:07:03.286Z,997.53
2022-10-08T05:08:03.263Z,997.52
2022-10-08T05:09:03.236Z,997.54
2022-10-08T05:10:03.216Z,997.58
2022-10-08T05:11:03.192Z,997.64
2022-10-08T05:12:03.171Z,997.67
2022-10-08T05:13:03.154Z,997.65
2022-10-08T05:14:03.119Z,997.66
2022-10-08T05:15:03.099Z,997.64
2022-10-08T05:16:03.168Z,997.66
2022-10-08T05:17:03.051Z,997.70
2022-10-08T05:18:03.047Z,997.66
2022-10-08T05:19:03.009Z,997.67
2022-10-08T05:20:02.984Z,997.68
2022-10-08T05:21:02.959Z,997.66
2022-10-08T05:22:02.935Z,997.69
2022-10-08T05:23:02.916Z,997.69
2022-10-08T05:24:02.917Z,997.71
2022-10-08T05:25:02.869Z,997.75
2022-10-08T05:26:02.839Z,997.72
2022-10-08T05:27:02.818Z,997.75
2022-10-08T05:28:02.915Z,997.76
2022-10-08T05:29:02.778Z,997.80
2022-10-08T05:30:02.772Z,997.77
2022-10-08T05:31:02.793Z,997.78
2022-10-08T05:32:02.709Z,997.83
2022-10-08T05:33:02.684Z,997.90
2022-10-08T05:34:02.663Z,997.89
2022-10-08T05:35:02.647Z,997.93
2022-10-08T05:36:02.613Z,997.89
2022-10-08T05:37:02.592Z,997.89
2022-10-08T05:38:02.563Z,997.92
2022-10-08T05:39:02.543Z,997.91
2022-10-08T05:40:02.519Z,997.95
2022-10-08T05:41:02.495Z,997.90
2022-10-08T05:42:02.472Z,997.93
2022-10-08T05:43:02.457Z,997.95
2022-10-08T05:44:02.433Z,997.93
2022-10-08T05:45:02.402Z,997.97
2022-10-08T05:46:02.492Z,997.96
2022-10-08T05:47:02.362Z,997.95
2022-10-08T05:48:02.328Z,997.99
2022-10-08T05:49:02.314Z,998.00
2022-10-08T05:50:02.294Z,998.02
2022-10-08T05:51:02.261Z,997.96
2022-10-08T05:52:02.241Z,997.98
2022-10-08T05:53:04.484Z,997.94
2022-10-08T05:54:02.192Z,997.96
2022-10-08T05:55:02.165Z,997.96
2022-10-08T05:56:02.147Z,997.99
2022-10-08T05:57:02.124Z,997.99
2022-10-08T05:58:02.100Z,998.00
2022-10-08T05:59:02.076Z,998.04
2022-10-08T06:00:02.052Z,998.01
2022-10-08T06:01:02.033Z,998.04
2022-10-08T06:02:02.006Z,998.03
2022-10-08T06:03:02.035Z,998.06
2022-10-08T06:04:07.791Z,998.04
2022-10-08T06:05:01.967Z,998.06
2022-10-08T06:06:01.907Z,998.06
2022-10-08T06:07:01.885Z,998.08
2022-10-08T06:08:01.867Z,998.10
2022-10-08T06:09:01.886Z,998.09
2022-10-08T06:10:01.816Z,998.08
2022-10-08T06:11:01.792Z,998.11
2022-10-08T06:12:01.776Z,998.13
2022-10-08T06:13:01.749Z,998.14
2022-10-08T06:14:01.728Z,998.17
2022-10-08T06:15:01.703Z,998.17
2022-10-08T06:16:01.721Z,998.18
2022-10-08T06:17:01.649Z,998.19
2022-10-08T06:18:01.633Z,998.25
2022-10-08T06:19:01.604Z,998.28
2022-10-08T06:20:01.582Z,998.24
2022-10-08T06:21:01.556Z,998.29
2022-10-08T06:22:01.535Z,998.31
2022-10-08T06:23:01.510Z,998.26
2022-10-08T06:24:01.489Z,998.29
2022-10-08T06:25:01.465Z,998.32
2022-10-08T06:26:01.444Z,998.29
2022-10-08T06:27:01.421Z,998.31
2022-10-08T06:28:01.463Z,998.34
2022-10-08T06:29:01.387Z,998.39
2022-10-08T06:30:01.348Z,998.40
2022-10-08T06:31:01.349Z,998.33
2022-10-08T06:32:01.314Z,998.35
2022-10-08T06:33:01.284Z,998.34
2022-10-08T06:34:01.257Z,998.38
2022-10-08T06:35:01.231Z,998.38
2022-10-08T06:36:01.212Z,998.38
2022-10-08T06:37:01.184Z,998.39
2022-10-08T06:38:01.161Z,998.38
2022-10-08T06:39:01.136Z,998.39
2022-10-08T06:40:01.115Z,998.41
2022-10-08T06:41:01.094Z,998.46
2022-10-08T06:42:01.071Z,998.50
2022-10-08T06:43:01.045Z,998.49
2022-10-08T06:44:01.022Z,998.46
2022-10-08T06:45:02.368Z,998.46
2022-10-08T06:46:00.976Z,998.46
2022-10-08T06:47:00.979Z,998.44
2022-10-08T06:48:00.931Z,998.46
2022-10-08T06:49:00.909Z,998.47
2022-10-08T06:50:01.100Z,998.42
2022-10-08T06:51:00.859Z,998.45
2022-10-08T06:52:00.838Z,998.48
2022-10-08T06:53:00.814Z,998.45
2022-10-08T06:54:07.010Z,998.47
2022-10-08T06:55:00.770Z,998.47
2022-10-08T06:56:00.743Z,998.43
2022-10-08T06:57:00.719Z,998.42
2022-10-08T06:58:00.696Z,998.47
2022-10-08T06:59:00.675Z,998.50
2022-10-08T07:00:00.692Z,998.48
2022-10-08T07:01:00.693Z,998.49
2022-10-08T07:02:00.682Z,998.49
2022-10-08T07:03:00.589Z,998.48
2022-10-08T07:04:00.563Z,998.49
2022-10-08T07:05:00.538Z,998.50
2022-10-08T07:06:00.515Z,998.51
2022-10-08T07:07:00.491Z,998.53
2022-10-08T07:08:00.468Z,998.53
2022-10-08T07:09:00.450Z,998.56
2022-10-08T07:10:00.473Z,998.60
2022-10-08T07:11:00.407Z,998.57
2022-10-08T07:12:00.376Z,998.62
2022-10-08T07:13:00.353Z,998.64
2022-10-08T07:14:00.340Z,998.63
2022-10-08T07:15:00.310Z,998.60
2022-10-08T07:16:00.346Z,998.60
2022-10-08T07:17:00.271Z,998.60
2022-10-08T07:18:00.244Z,998.64
2022-10-08T07:19:00.214Z,998.66
2022-10-08T07:20:00.316Z,998.63
2022-10-08T07:21:00.173Z,998.64
2022-10-08T07:22:01.508Z,998.64
2022-10-08T07:23:00.125Z,998.67
2022-10-08T07:24:00.102Z,998.68
2022-10-08T07:25:00.096Z,998.67
2022-10-08T07:26:00.053Z,998.66
2022-10-08T07:27:00.033Z,998.68
2022-10-08T07:28:00.120Z,998.68
2022-10-08T07:28:59.991Z,998.67
2022-10-08T07:29:59.969Z,998.72
2022-10-08T07:30:59.958Z,998.71
2022-10-08T07:31:59.959Z,998.72
2022-10-08T07:32:59.900Z,998.76
2022-10-08T07:33:59.878Z,998.78
2022-10-08T07:35:00.158Z,998.78
2022-10-08T07:35:59.833Z,998.82
2022-10-08T07:36:59.839Z,998.80
2022-10-08T07:37:59.789Z,998.81
2022-10-08T07:38:59.768Z,998.85
2022-10-08T07:39:59.747Z,998.85
2022-10-08T07:40:59.725Z,998.85
2022-10-08T07:41:59.731Z,998.86
2022-10-08T07:42:59.685Z,998.88
2022-10-08T07:43:59.705Z,998.89
2022-10-08T07:44:59.636Z,998.90
2022-10-08T07:45:59.707Z,998.92
2022-10-08T07:46:59.593Z,998.94
2022-10-08T07:47:59.573Z,998.95
2022-10-08T07:48:59.584Z,998.97
2022-10-08T07:49:59.525Z,998.97
2022-10-08T07:50:59.509Z,999.00
2022-10-08T07:51:59.483Z,999.02
2022-10-08T07:52:59.470Z,999.01
2022-10-08T07:54:02.592Z,999.08
2022-10-08T07:54:59.429Z,999.09
2022-10-08T07:55:59.408Z,999.08
2022-10-08T07:56:59.387Z,999.08
2022-10-08T07:57:59.368Z,999.11
2022-10-08T07:58:59.361Z,999.11
2022-10-08T07:59:59.326Z,999.14
2022-10-08T08:00:59.420Z,999.14
2022-10-08T08:01:59.331Z,999.15
2022-10-08T08:02:59.270Z,999.17
2022-10-08T08:03:59.251Z,999.16
2022-10-08T08:04:59.237Z,999.18
2022-10-08T08:05:59.217Z,999.13
2022-10-08T08:06:59.194Z,999.15
2022-10-08T08:07:59.193Z,999.15
2022-10-08T08:08:59.161Z,999.16
2022-10-08T08:09:59.142Z,999.18
2022-10-08T08:10:59.123Z,999.16
2022-10-08T08:11:59.104Z,999.17
2022-10-08T08:12:59.090Z,999.23
2022-10-08T08:13:59.069Z,999.21
2022-10-08T08:14:59.053Z,999.22
2022-10-08T08:15:59.255Z,999.21
2022-10-08T08:16:59.130Z,999.23
2022-10-08T08:17:58.997Z,999.19
2022-10-08T08:18:59.014Z,999.26
2022-10-08T08:19:58.993Z,999.27
2022-10-08T08:20:58.947Z,999.30
2022-10-08T08:21:58.923Z,999.31
2022-10-08T08:22:58.910Z,999.32
2022-10-08T08:23:58.893Z,999.30
2022-10-08T08:24:58.878Z,999.34
2022-10-08T08:25:58.858Z,999.33
2022-10-08T08:26:58.844Z,999.32
2022-10-08T08:27:58.823Z,999.37
2022-10-08T08:28:58.807Z,999.41
2022-10-08T08:29:58.805Z,999.39
2022-10-08T08:30:58.776Z,999.39
2022-10-08T08:31:58.791Z,999.45
2022-10-08T08:32:58.744Z,999.45
2022-10-08T08:33:58.726Z,999.47
2022-10-08T08:34:58.709Z,999.48
2022-10-08T08:35:58.693Z,999.48
2022-10-08T08:36:58.672Z,999.49
2022-10-08T08:37:58.653Z,999.50
2022-10-08T08:38:58.641Z,999.47
2022-10-08T08:39:58.624Z,999.50
2022-10-08T08:40:58.607Z,999.51
2022-10-08T08:41:58.584Z,999.54
2022-10-08T08:42:58.573Z,999.58
2022-10-08T08:43:58.551Z,999.56
2022-10-08T08:44:58.539Z,999.59
2022-10-08T08:45:58.538Z,999.61
2022-10-08T08:46:58.499Z,999.63
2022-10-08T08:47:58.481Z,999.60
2022-10-08T08:48:58.468Z,999.66
2022-10-08T08:49:58.448Z,999.65
2022-10-08T08:50:58.431Z,999.68
2022-10-08T08:51:58.417Z,999.68
2022-10-08T08:52:58.398Z,999.69
2022-10-08T08:53:58.378Z,999.66
2022-10-08T08:54:58.365Z,999.65
2022-10-08T08:55:58.347Z,999.64
2022-10-08T08:56:58.328Z,999.63
2022-10-08T08:57:58.312Z,999.64
2022-10-08T08:58:58.300Z,999.68
2022-10-08T08:59:58.277Z,999.68
2022-10-08T09:00:58.347Z,999.68
2022-10-08T09:01:58.249Z,999.69
2022-10-08T09:02:58.234Z,999.70
2022-10-08T09:03:58.214Z,999.72
2022-10-08T09:04:58.270Z,999.71
2022-10-08T09:05:58.176Z,999.74
2022-10-08T09:06:58.159Z,999.75
2022-10-08T09:07:58.144Z,999.74
2022-10-08T09:08:58.129Z,999.73
2022-10-08T09:09:58.107Z,999.74
2022-10-08T09:10:58.104Z,999.72
2022-10-08T09:11:58.078Z,999.76
2022-10-08T09:12:58.057Z,999.74
2022-10-08T09:13:58.057Z,999.73
2022-10-08T09:14:58.022Z,999.74
2022-10-08T09:15:58.009Z,999.74
2022-10-08T09:16:58.051Z,999.71
2022-10-08T09:17:57.977Z,999.74
2022-10-08T09:18:57.959Z,999.77
2022-10-08T09:19:57.936Z,999.72
2022-10-08T09:20:57.926Z,999.74
2022-10-08T09:21:57.908Z,999.77
2022-10-08T09:22:57.892Z,999.77
2022-10-08T09:23:57.873Z,999.76
2022-10-08T09:24:57.856Z,999.75
2022-10-08T09:25:57.842Z,999.73
2022-10-08T09:26:57.828Z,999.76
2022-10-08T09:27:57.809Z,999.70
2022-10-08T09:28:57.790Z,999.71
2022-10-08T09:29:57.801Z,999.71
2022-10-08T09:31:00.370Z,999.73
2022-10-08T09:31:57.742Z,999.74
2022-10-08T09:32:57.728Z,999.74
2022-10-08T09:33:57.709Z,999.77
2022-10-08T09:34:57.691Z,999.76
2022-10-08T09:35:57.676Z,999.77
2022-10-08T09:36:57.666Z,999.82
2022-10-08T09:37:59.880Z,999.86
2022-10-08T09:38:57.630Z,999.86
2022-10-08T09:39:57.615Z,999.90
2022-10-08T09:40:57.598Z,999.94
2022-10-08T09:41:57.599Z,999.91
2022-10-08T09:42:57.563Z,999.92
2022-10-08T09:43:57.551Z,999.97
2022-10-08T09:44:57.534Z,999.97
2022-10-08T09:45:57.631Z,999.94
2022-10-08T09:46:57.507Z,999.90
2022-10-08T09:47:57.499Z,999.89
2022-10-08T09:48:57.476Z,999.97
2022-10-08T09:49:57.474Z,999.98
2022-10-08T09:50:57.462Z,999.99
2022-10-08T09:51:57.450Z,999.96
2022-10-08T09:52:57.430Z,999.95
2022-10-08T09:53:57.407Z,999.93
2022-10-08T09:54:57.392Z,999.95
2022-10-08T09:55:57.379Z,999.97
2022-10-08T09:56:57.395Z,999.96
2022-10-08T09:57:57.349Z,1000.02
2022-10-08T09:58:57.334Z,999.98
2022-10-08T09:59:57.327Z,1000.03
2022-10-08T10:00:57.364Z,1000.05
2022-10-08T10:01:57.314Z,1000.14
2022-10-08T10:02:57.271Z,1000.10
2022-10-08T10:03:57.315Z,1000.07
2022-10-08T10:04:57.236Z,1000.08
2022-10-08T10:05:57.226Z,1000.11
2022-10-08T10:06:57.207Z,1000.05
2022-10-08T10:07:57.184Z,1000.09
2022-10-08T10:08:57.169Z,1000.11
2022-10-08T10:09:57.163Z,1000.16
2022-10-08T10:10:57.137Z,1000.13
2022-10-08T10:11:57.120Z,1000.17
2022-10-08T10:12:57.102Z,1000.17
2022-10-08T10:13:57.088Z,1000.16
2022-10-08T10:14:57.076Z,1000.19
2022-10-08T10:15:57.053Z,1000.19
2022-10-08T10:16:57.071Z,1000.19
2022-10-08T10:17:57.037Z,1000.17
2022-10-08T10:18:57.000Z,1000.20
2022-10-08T10:19:56.999Z,1000.21
2022-10-08T10:20:56.972Z,1000.20
2022-10-08T10:21:56.954Z,1000.16
2022-10-08T10:22:56.936Z,1000.18
2022-10-08T10:23:56.922Z,1000.24
2022-10-08T10:24:56.909Z,1000.18
2022-10-08T10:25:57.993Z,1000.22
2022-10-08T10:26:56.893Z,1000.21
2022-10-08T10:27:56.863Z,1000.18
2022-10-08T10:28:56.851Z,1000.14
2022-10-08T10:29:56.821Z,1000.09
2022-10-08T10:30:56.864Z,1000.15
2022-10-08T10:31:56.791Z,1000.19
2022-10-08T10:32:56.773Z,1000.15
2022-10-08T10:33:56.759Z,1000.13
2022-10-08T10:34:56.744Z,1000.16
2022-10-08T10:35:56.728Z,1000.17
2022-10-08T10:36:56.712Z,1000.17
2022-10-08T10:37:56.694Z,1000.17
2022-10-08T10:38:56.680Z,1000.15
2022-10-08T10:39:56.659Z,1000.12
2022-10-08T10:40:56.644Z,1000.12
2022-10-08T10:41:56.628Z,1000.12
2022-10-08T10:42:56.609Z,1000.19
2022-10-08T10:43:56.595Z,1000.14
2022-10-08T10:44:56.574Z,1000.15
2022-10-08T10:45:56.583Z,1000.20
2022-10-08T10:46:56.542Z,1000.25
2022-10-08T10:47:56.529Z,1000.20
2022-10-08T10:48:56.514Z,1000.26
2022-10-08T10:49:56.491Z,1000.27
2022-10-08T10:50:56.476Z,1000.28
2022-10-08T10:51:56.459Z,1000.24
2022-10-08T10:52:56.441Z,1000.24
2022-10-08T10:53:56.428Z,1000.27
2022-10-08T10:54:56.426Z,1000.28
2022-10-08T10:55:56.396Z,1000.31
2022-10-08T10:56:56.380Z,1000.33
2022-10-08T10:57:56.381Z,1000.36
2022-10-08T10:58:56.345Z,1000.37
2022-10-08T10:59:56.326Z,1000.36
2022-10-08T11:00:56.317Z,1000.38
2022-10-08T11:01:56.359Z,1000.40
2022-10-08T11:02:56.340Z,1000.33
2022-10-08T11:03:56.276Z,1000.36
2022-10-08T11:05:01.373Z,1000.37
2022-10-08T11:05:56.239Z,1000.38
2022-10-08T11:06:56.227Z,1000.42
2022-10-08T11:07:56.213Z,1000.43
2022-10-08T11:08:56.193Z,1000.45
2022-10-08T11:09:56.180Z,1000.45
2022-10-08T11:10:56.168Z,1000.47
2022-10-08T11:11:56.149Z,1000.43
2022-10-08T11:12:56.131Z,1000.42
2022-10-08T11:13:56.118Z,1000.42
2022-10-08T11:14:56.106Z,1000.46
2022-10-08T11:15:56.158Z,1000.46
2022-10-08T11:16:56.067Z,1000.50
2022-10-08T11:17:56.052Z,1000.44
2022-10-08T11:18:56.042Z,1000.40
2022-10-08T11:19:56.018Z,1000.44
2022-10-08T11:20:56.006Z,1000.44
2022-10-08T11:21:55.986Z,1000.44
2022-10-08T11:22:55.969Z,1000.41
2022-10-08T11:23:55.957Z,1000.44
2022-10-08T11:24:55.947Z,1000.45
2022-10-08T11:26:20.444Z,1000.44
2022-10-08T11:26:55.905Z,1000.44
2022-10-08T11:27:55.884Z,1000.47
2022-10-08T11:28:55.870Z,1000.47
2022-10-08T11:29:55.849Z,1000.47
2022-10-08T11:30:55.861Z,1000.49
2022-10-08T11:31:55.818Z,1000.48
2022-10-08T11:32:55.804Z,1000.47
2022-10-08T11:33:55.786Z,1000.48
2022-10-08T11:34:55.773Z,1000.50
2022-10-08T11:35:55.750Z,1000.49
2022-10-08T11:36:55.741Z,1000.52
2022-10-08T11:37:55.731Z,1000.50
2022-10-08T11:38:55.702Z,1000.53
2022-10-08T11:39:55.689Z,1000.54
2022-10-08T11:40:55.670Z,1000.50
2022-10-08T11:41:55.654Z,1000.54
2022-10-08T11:42:55.797Z,1000.54
2022-10-08T11:43:55.628Z,1000.49
2022-10-08T11:44:55.609Z,1000.49
2022-10-08T11:45:55.638Z,1000.50
2022-10-08T11:46:55.572Z,1000.52
2022-10-08T11:47:55.552Z,1000.55
2022-10-08T11:48:55.553Z,1000.53
2022-10-08T11:49:55.526Z,1000.53
2022-10-08T11:50:55.507Z,1000.53
2022-10-08T11:51:55.489Z,1000.56
2022-10-08T11:52:55.500Z,1000.58
2022-10-08T11:53:55.473Z,1000.60
2022-10-08T11:54:56.106Z,1000.57
2022-10-08T11:55:55.432Z,1000.60
2022-10-08T11:56:55.416Z,1000.62
2022-10-08T11:58:07.597Z,1000.63
2022-10-08T11:58:55.387Z,1000.56
2022-10-08T11:59:55.370Z,1000.61
2022-10-08T12:00:55.352Z,1000.62
2022-10-08T12:01:55.332Z,1000.59
2022-10-08T12:02:55.375Z,1000.62
2022-10-08T12:03:55.333Z,1000.61
2022-10-08T12:04:55.281Z,1000.64
2022-10-08T12:05:55.276Z,1000.66
2022-10-08T12:06:55.249Z,1000.66
2022-10-08T12:07:55.243Z,1000.68
2022-10-08T12:08:55.227Z,1000.64
2022-10-08T12:09:55.201Z,1000.64
2022-10-08T12:10:55.186Z,1000.61
2022-10-08T12:11:55.176Z,1000.57
2022-10-08T12:12:55.151Z,1000.53
2022-10-08T12:13:55.134Z,1000.61
2022-10-08T12:14:55.122Z,1000.62
2022-10-08T12:15:55.167Z,1000.57
2022-10-08T12:16:55.085Z,1000.59
2022-10-08T12:17:55.072Z,1000.56
2022-10-08T12:18:55.050Z,1000.62
2022-10-08T12:19:55.034Z,1000.58
2022-10-08T12:20:55.028Z,1000.61
2022-10-08T12:21:55.000Z,1000.60
2022-10-08T12:22:54.985Z,1000.60